Time;durP1;ratioP1;P1;durP2;ratioP2;P2;SDS_P1;SDS_P2;PMS_P1;PMS_P2;Temp;Humidity;BMP_temperature;BMP_pressure;BME280_temperature;BME280_humidity;BME280_pressure;Samples;Min_cycle;Max_cycle;Signal;HPM_P1;HPM_P2
2023/10/31 00:00:52;;;;;;;12.73;5.85;;;;;;;;;;5025316;28;20034;-75
2023/10/31 00:04:01;;;;;;;18.13;6.28;;;;;;;;;;5096124;28;20508;-75
2023/10/31 00:10:33;;;;;;;11.70;5.10;;;;;;;;;;5041608;28;20049;-74
2023/10/31 00:13:36;;;;;;;12.88;5.95;;;;;;;;;;5032903;28;20041;-75
2023/10/31 00:17:10;;;;;;;13.32;5.95;;;;;;;;;;5034737;28;20037;-74
2023/10/31 00:20:51;;;;;;;12.90;5.90;;;;;;;;;;5031019;28;20044;-74
2023/10/31 00:24:06;;;;;;;19.25;6.50;;;;;;;;;;4969104;28;20061;-73
2023/10/31 00:27:34;;;;;;;15.70;6.75;;;;;;;;;;4933383;28;20051;-73
2023/10/31 00:31:03;;;;;;;11.57;6.05;;;;;;;;;;4984266;28;20039;-74
2023/10/31 00:34:51;;;;;;;12.55;5.85;;;;;;;;;;4927878;28;20197;-74
2023/10/31 00:37:39;;;;;;;15.52;6.13;;;;;;;;;;4988405;28;20486;-74
2023/10/31 00:51:51;;;;;;;11.35;4.68;;;;;;;;;;5008520;28;20522;-74
2023/10/31 00:54:59;;;;;;;10.55;4.97;;;;;;;;;;4992014;28;20034;-73
2023/10/31 00:57:50;;;;;;;10.48;4.90;;;;;;;;;;5083964;28;20037;-74
2023/10/31 01:00:41;;;;;;;13.57;4.30;;;;;;;;;;5079340;28;20271;-73
2023/10/31 01:03:48;;;;;;;11.45;4.28;;;;;;;;;;5085197;28;20063;-73
2023/10/31 01:07:20;;;;;;;8.38;3.90;;;;;;;;;;5083877;28;20061;-73
2023/10/31 01:25:02;;;;;;;16.10;7.72;;;;;;;;;;5015675;28;20064;-73
2023/10/31 01:28:41;;;;;;;;;;;;;;;;;;5022929;28;20543;-73
2023/10/31 01:31:46;;;;;;;12.45;7.25;;;;;;;;;;5025405;28;19919;-74
2023/10/31 01:38:46;;;;;;;28.08;14.65;;;;;;;;;;5076114;28;20125;-73
2023/10/31 01:42:01;;;;;;;26.23;14.90;;;;;;;;;;5085289;28;20047;-74
2023/10/31 01:49:10;;;;;;;59.47;33.53;;;;;;;;;;5088815;28;20035;-74
2023/10/31 01:51:44;;;;;;;47.55;23.95;;;;;;;;;;5008923;28;20046;-74
2023/10/31 01:54:58;;;;;;;34.65;20.02;;;;;;;;;;5000972;28;20037;-74
2023/10/31 02:05:53;;;;;;;28.25;16.23;;;;;;;;;;4883619;29;20039;-74
2023/10/31 02:12:06;;;;;;;23.75;13.88;;;;;;;;;;4920443;29;20043;-73
2023/10/31 02:15:41;;;;;;;18.67;9.70;;;;;;;;;;4905360;29;20106;-73
2023/10/31 02:18:54;;;;;;;17.08;10.63;;;;;;;;;;4881093;29;20049;-73
2023/10/31 02:21:42;;;;;;;25.38;13.55;;;;;;;;;;5026604;28;20093;-73
2023/10/31 02:24:14;;;;;;;25.10;13.68;;;;;;;;;;5071386;28;20125;-74
2023/10/31 02:26:49;;;;;;;19.75;11.55;;;;;;;;;;5083052;28;20036;-74
2023/10/31 02:29:22;;;;;;;24.15;11.90;;;;;;;;;;5082663;28;20043;-73
2023/10/31 02:32:20;;;;;;;21.50;12.48;;;;;;;;;;5091409;28;20039;-73
2023/10/31 02:35:19;;;;;;;23.02;13.25;;;;;;;;;;5028274;28;20136;-73
2023/10/31 02:38:10;;;;;;;32.17;18.30;;;;;;;;;;5031623;28;20041;-73
2023/10/31 02:40:40;;;;;;;33.60;19.75;;;;;;;;;;5065147;28;20070;-73
2023/10/31 02:43:34;;;;;;;36.25;18.08;;;;;;;;;;5088830;28;20028;-73
2023/10/31 02:46:32;;;;;;;35.38;17.25;;;;;;;;;;5089695;28;20462;-73
2023/10/31 02:49:13;;;;;;;23.88;13.15;;;;;;;;;;5090330;28;20520;-73
2023/10/31 02:51:51;;;;;;;19.85;11.45;;;;;;;;;;5090728;28;20051;-73
2023/10/31 02:54:27;;;;;;;22.25;11.88;;;;;;;;;;5090874;28;20036;-73
2023/10/31 02:56:59;;;;;;;26.30;12.80;;;;;;;;;;5085296;28;20036;-73
2023/10/31 02:59:37;;;;;;;18.90;9.48;;;;;;;;;;5044973;28;20044;-73
2023/10/31 03:02:33;;;;;;;16.92;8.80;;;;;;;;;;5082510;28;20493;-73
2023/10/31 03:05:14;;;;;;;15.70;9.27;;;;;;;;;;5090570;28;20497;-73
2023/10/31 03:07:50;;;;;;;15.38;8.32;;;;;;;;;;5088962;28;20032;-73
2023/10/31 03:10:26;;;;;;;15.02;8.50;;;;;;;;;;5100112;28;20085;-73
2023/10/31 03:13:02;;;;;;;19.30;9.27;;;;;;;;;;5090051;28;20404;-73
2023/10/31 03:16:21;;;;;;;;;;;;;;;;;;;;;
2023/10/31 03:19:29;;;;;;;20.55;8.60;;;;;;;;;;5072126;28;20083;-73
2023/10/31 03:22:45;;;;;;;16.67;8.27;;;;;;;;;;5006149;28;20446;-74
2023/10/31 03:25:46;;;;;;;22.85;8.55;;;;;;;;;;5034210;28;20855;-73
2023/10/31 03:28:24;;;;;;;35.45;8.70;;;;;;;;;;5075738;28;20036;-74
2023/10/31 03:31:16;;;;;;;20.73;10.10;;;;;;;;;;5087417;28;20050;-73
2023/10/31 03:34:07;;;;;;;21.55;8.35;;;;;;;;;;5078763;28;20136;-73
2023/10/31 03:37:18;;;;;;;31.40;8.43;;;;;;;;;;5089565;28;20024;-73
2023/10/31 03:39:47;;;;;;;21.25;6.97;;;;;;;;;;5090133;28;20062;-73
2023/10/31 03:42:20;;;;;;;14.32;8.45;;;;;;;;;;5088670;28;20047;-73
2023/10/31 03:45:06;;;;;;;21.55;8.10;;;;;;;;;;5090889;28;20197;-73
2023/10/31 03:47:36;;;;;;;21.73;8.70;;;;;;;;;;5102456;28;20085;-73
2023/10/31 03:50:06;;;;;;;24.13;8.82;;;;;;;;;;5072847;28;20044;-73
2023/10/31 03:52:37;;;;;;;18.63;8.05;;;;;;;;;;5091714;28;20048;-73
2023/10/31 03:55:18;;;;;;;18.10;8.23;;;;;;;;;;5090818;28;20024;-73
2023/10/31 03:58:27;;;;;;;;;;;;;;;;;;;;;
2023/10/31 04:01:39;;;;;;;14.93;6.60;;;;;;;;;;5091181;28;20043;-73
2023/10/31 04:04:17;;;;;;;14.02;7.30;;;;;;;;;;5091108;28;20032;-74
2023/10/31 04:06:48;;;;;;;19.77;8.77;;;;;;;;;;5087190;28;20113;-73
2023/10/31 04:09:20;;;;;;;21.02;9.00;;;;;;;;;;5082460;28;20031;-73
2023/10/31 04:11:52;;;;;;;14.68;7.72;;;;;;;;;;5082689;28;20064;-73
2023/10/31 04:14:38;;;;;;;29.40;10.02;;;;;;;;;;5095300;28;20456;-74
2023/10/31 04:17:32;;;;;;;20.05;8.50;;;;;;;;;;5091973;28;20109;-73
2023/10/31 04:20:22;;;;;;;17.13;7.85;;;;;;;;;;5084450;28;20426;-73
2023/10/31 04:23:11;;;;;;;24.48;9.48;;;;;;;;;;5077614;28;20447;-73
2023/10/31 04:30:48;;;;;;;;;;;;;;;;;;;;;
2023/10/31 04:34:17;;;;;;;18.42;8.00;;;;;;;;;;5087401;28;20039;-73
2023/10/31 04:38:03;;;;;;;16.90;8.35;;;;;;;;;;5020105;28;20045;-75
2023/10/31 04:55:58;;;;;;;;;;;;;;;;;;;;;
2023/10/31 04:58:52;;;;;;;25.40;9.15;;;;;;;;;;5090674;28;20058;-73
2023/10/31 05:01:56;;;;;;;22.42;9.35;;;;;;;;;;5084922;28;20039;-74
2023/10/31 05:05:57;;;;;;;;;;;;;;;;;;;;;
2023/10/31 05:13:04;;;;;;;;;;;;;;;;;;;;;
2023/10/31 05:23:08;;;;;;;17.50;7.22;;;;;;;;;;5007420;28;20045;-74
2023/10/31 05:41:14;;;;;;;30.85;9.75;;;;;;;;;;4794956;29;20058;-74
2023/10/31 05:47:20;;;;;;;20.85;7.63;;;;;;;;;;4869876;29;20077;-74
2023/10/31 05:49:55;;;;;;;18.70;8.25;;;;;;;;;;4861176;29;20055;-74
2023/10/31 05:53:39;;;;;;;;;;;;;;;;;;;;;
2023/10/31 05:59:51;;;;;;;26.55;7.38;;;;;;;;;;5006403;28;20055;-73
2023/10/31 06:03:11;;;;;;;22.38;7.30;;;;;;;;;;5072152;28;20046;-74
2023/10/31 06:08:35;;;;;;;30.30;7.82;;;;;;;;;;5075984;28;20535;-73
2023/10/31 06:11:07;;;;;;;16.83;8.07;;;;;;;;;;5092815;28;20043;-73
2023/10/31 06:14:26;;;;;;;21.23;8.50;;;;;;;;;;5061002;28;20047;-73
2023/10/31 06:18:14;;;;;;;18.52;7.20;;;;;;;;;;5082852;28;20046;-73
2023/10/31 06:25:01;;;;;;;;;;;;;;;;;;;;;
2023/10/31 06:27:36;;;;;;;22.48;7.32;;;;;;;;;;5046967;28;20546;-74
2023/10/31 06:30:12;;;;;;;16.90;7.30;;;;;;;;;;5071996;28;20125;-73
2023/10/31 06:33:47;;;;;;;16.80;7.25;;;;;;;;;;5091504;28;20604;-74
2023/10/31 06:36:41;;;;;;;;;;;;;;;;;;;;;
2023/10/31 06:39:32;;;;;;;11.40;6.10;;;;;;;;;;5039883;28;20048;-74
2023/10/31 06:43:03;;;;;;;15.60;6.70;;;;;;;;;;5088452;28;20477;-74
2023/10/31 06:46:02;;;;;;;;;;;;;;;;;;;;;
2023/10/31 06:57:03;;;;;;;18.73;7.78;;;;;;;;;;4988325;28;20045;-74
2023/10/31 06:59:48;;;;;;;20.80;7.75;;;;;;;;;;4985033;28;20034;-72
2023/10/31 07:02:20;;;;;;;21.67;7.85;;;;;;;;;;4979557;28;20100;-71
2023/10/31 07:09:36;;;;;;;18.98;7.07;;;;;;;;;;5009367;28;20040;-74
2023/10/31 07:17:08;;;;;;;13.30;5.97;;;;;;;;;;5028724;28;20044;-75
2023/10/31 07:20:20;;;;;;;20.30;7.43;;;;;;;;;;5048630;28;20042;-76
2023/10/31 07:23:41;;;;;;;19.38;6.90;;;;;;;;;;5095063;28;20036;-77
2023/10/31 07:34:17;;;;;;;;;;;;;;;;;;;;;
2023/10/31 07:37:22;;;;;;;13.48;6.88;;;;;;;;;;5052320;28;20036;-75
2023/10/31 07:40:48;;;;;;;;;;;;;;;;;;;;;
2023/10/31 07:44:26;;;;;;;15.95;6.15;;;;;;;;;;4974061;28;20112;-75
2023/10/31 07:47:48;;;;;;;12.90;7.03;;;;;;;;;;4953824;28;20034;-78
2023/10/31 07:57:49;;;;;;;24.58;8.77;;;;;;;;;;5037175;28;20070;-76
2023/10/31 08:08:29;;;;;;;15.82;8.75;;;;;;;;;;4987862;28;20041;-76
2023/10/31 08:15:25;;;;;;;25.35;9.98;;;;;;;;;;5011760;28;20048;-75
2023/10/31 08:17:51;;;;;;;20.17;8.68;;;;;;;;;;5051410;28;20047;-75
2023/10/31 08:20:43;;;;;;;19.67;8.57;;;;;;;;;;5110521;28;20121;-75
2023/10/31 08:24:01;;;;;;;18.00;8.32;;;;;;;;;;5094068;28;20076;-77
2023/10/31 08:26:39;;;;;;;28.40;8.63;;;;;;;;;;5077162;28;20039;-75
2023/10/31 08:33:18;;;;;;;23.15;8.90;;;;;;;;;;5080140;28;20032;-76
2023/10/31 08:36:52;;;;;;;;;;;;;;;;;;;;;
2023/10/31 08:39:00;;;;;;;32.80;10.30;;;;;;;;;;5040635;28;20041;-76
2023/10/31 08:45:12;;;;;;;13.98;7.65;;;;;;;;;;5051639;28;20417;-75
2023/10/31 08:48:45;;;;;;;19.20;8.48;;;;;;;;;;5028832;28;20063;-76
2023/10/31 08:55:43;;;;;;;;;;;;;;;;;;;;;
2023/10/31 09:06:09;;;;;;;18.77;9.60;;;;;;;;;;5031516;28;20032;-76
2023/10/31 09:09:19;;;;;;;21.98;9.98;;;;;;;;;;5014791;28;20041;-76
2023/10/31 09:12:52;;;;;;;;;;;;;;;;;;;;;
2023/10/31 09:16:50;;;;;;;22.75;9.75;;;;;;;;;;4995800;28;20620;-76
2023/10/31 09:26:59;;;;;;;16.63;8.32;;;;;;;;;;5057781;28;20090;-75
2023/10/31 09:29:41;;;;;;;40.63;9.52;;;;;;;;;;5084499;28;20097;-76
2023/10/31 09:37:04;;;;;;;23.38;8.60;;;;;;;;;;5010736;28;20136;-76
2023/10/31 09:41:05;;;;;;;21.10;8.80;;;;;;;;;;5006235;28;20651;-77
2023/10/31 09:44:04;;;;;;;19.00;8.75;;;;;;;;;;5006020;28;20048;-76
2023/10/31 09:46:38;;;;;;;18.75;9.82;;;;;;;;;;5075231;28;20126;-76
2023/10/31 09:50:00;;;;;;;;;;;;;;;;;;;;;
2023/10/31 09:57:26;;;;;;;21.55;8.48;;;;;;;;;;4971263;28;20519;-77
2023/10/31 10:19:19;;;;;;;21.83;9.48;;;;;;;;;;4821122;29;20096;-76
2023/10/31 10:23:15;;;;;;;17.85;8.55;;;;;;;;;;4831450;29;20098;-76
2023/10/31 10:29:36;;;;;;;23.33;10.70;;;;;;;;;;4818383;29;20135;-77
2023/10/31 10:33:00;;;;;;;23.05;11.10;;;;;;;;;;4838454;29;20068;-76
2023/10/31 10:36:03;;;;;;;18.60;10.60;;;;;;;;;;4844961;29;20053;-76
2023/10/31 10:39:21;;;;;;;19.17;8.93;;;;;;;;;;4856949;29;20045;-76
2023/10/31 10:50:03;;;;;;;17.58;8.02;;;;;;;;;;4913087;29;20043;-76
2023/10/31 10:53:57;;;;;;;16.25;7.45;;;;;;;;;;4954270;28;20117;-75
2023/10/31 11:05:01;;;;;;;19.30;6.90;;;;;;;;;;4995565;28;20518;-78
2023/10/31 11:08:14;;;;;;;14.30;7.03;;;;;;;;;;5087162;28;20477;-79
2023/10/31 11:11:21;;;;;;;18.58;6.53;;;;;;;;;;5083379;28;20480;-77
2023/10/31 11:14:17;;;;;;;15.52;6.10;;;;;;;;;;5073110;28;20043;-76
2023/10/31 11:17:21;;;;;;;;;;;;;;;;;;;;;
2023/10/31 11:20:44;;;;;;;23.55;6.47;;;;;;;;;;5074935;28;20109;-77
2023/10/31 11:23:41;;;;;;;;;;;;;;;;;;;;;
2023/10/31 11:27:23;;;;;;;;;;;;;;;;;;;;;
2023/10/31 11:30:20;;;;;;;14.95;6.18;;;;;;;;;;5039119;28;20126;-77
2023/10/31 11:33:14;;;;;;;17.70;6.17;;;;;;;;;;5046712;28;20033;-78
2023/10/31 11:36:15;;;;;;;18.42;5.90;;;;;;;;;;5045845;28;20049;-78
2023/10/31 11:39:39;;;;;;;20.38;9.23;;;;;;;;;;5067687;28;20032;-76
2023/10/31 11:42:59;;;;;;;18.88;5.47;;;;;;;;;;5090499;28;20043;-76
2023/10/31 11:45:50;;;;;;;14.38;5.05;;;;;;;;;;5020974;28;20407;-77
2023/10/31 11:49:01;;;;;;;13.55;5.32;;;;;;;;;;5034711;28;20513;-77
2023/10/31 11:51:30;;;;;;;14.43;6.18;;;;;;;;;;5072984;28;20133;-76
2023/10/31 11:54:15;;;;;;;15.00;6.47;;;;;;;;;;5105588;28;20081;-76
2023/10/31 11:56:52;;;;;;;18.60;7.15;;;;;;;;;;5076132;28;20125;-77
2023/10/31 12:00:04;;;;;;;18.27;6.32;;;;;;;;;;5074245;28;20071;-76
2023/10/31 12:03:31;;;;;;;;;;;;;;;;;;;;;
2023/10/31 12:06:14;;;;;;;13.32;6.15;;;;;;;;;;5085235;28;20043;-76
2023/10/31 12:09:01;;;;;;;16.30;6.55;;;;;;;;;;5056110;28;20047;-76
2023/10/31 12:11:57;;;;;;;16.42;6.75;;;;;;;;;;5073828;28;20044;-77
2023/10/31 12:14:27;;;;;;;14.60;6.80;;;;;;;;;;5074679;28;20032;-77
2023/10/31 12:17:07;;;;;;;16.85;5.88;;;;;;;;;;5090623;28;20584;-77
2023/10/31 12:19:37;;;;;;;14.77;6.68;;;;;;;;;;5088817;28;20036;-75
2023/10/31 12:22:15;;;;;;;16.38;6.15;;;;;;;;;;5071860;28;20068;-77
2023/10/31 12:24:46;;;;;;;16.75;7.63;;;;;;;;;;5090671;28;20186;-76
2023/10/31 12:27:21;;;;;;;11.95;5.50;;;;;;;;;;5071884;28;20059;-77
2023/10/31 12:30:12;;;;;;;19.45;5.68;;;;;;;;;;5091292;28;20086;-78
2023/10/31 12:32:40;;;;;;;16.52;7.28;;;;;;;;;;5056628;28;20409;-76
2023/10/31 12:35:15;;;;;;;16.00;5.90;;;;;;;;;;5077031;28;20524;-76
2023/10/31 12:37:44;;;;;;;13.07;5.85;;;;;;;;;;5077503;28;20047;-75
2023/10/31 12:40:24;;;;;;;13.68;5.22;;;;;;;;;;5094848;28;20052;-76
2023/10/31 12:42:51;;;;;;;13.95;6.10;;;;;;;;;;5091760;28;20043;-74
2023/10/31 12:45:19;;;;;;;14.85;6.32;;;;;;;;;;5094600;28;20039;-75
2023/10/31 12:48:02;;;;;;;13.70;6.18;;;;;;;;;;5094471;28;20512;-76
2023/10/31 12:50:28;;;;;;;15.48;5.57;;;;;;;;;;5076232;28;20044;-75
2023/10/31 12:52:57;;;;;;;16.70;5.82;;;;;;;;;;5059709;28;20131;-75
2023/10/31 12:55:30;;;;;;;28.10;6.43;;;;;;;;;;5094429;28;20370;-76
2023/10/31 12:58:20;;;;;;;13.98;4.95;;;;;;;;;;5077160;28;20040;-76
2023/10/31 13:00:48;;;;;;;20.17;6.20;;;;;;;;;;5095053;28;20477;-74
2023/10/31 13:03:15;;;;;;;14.10;5.20;;;;;;;;;;5076119;28;20599;-75
2023/10/31 13:05:41;;;;;;;15.75;4.82;;;;;;;;;;5095275;28;20059;-75
2023/10/31 13:08:22;;;;;;;23.23;5.95;;;;;;;;;;5108619;28;20092;-74
2023/10/31 13:10:53;;;;;;;17.17;5.22;;;;;;;;;;5095963;28;20118;-74
2023/10/31 13:13:23;;;;;;;24.15;6.00;;;;;;;;;;5113217;28;20031;-75
2023/10/31 13:15:49;;;;;;;20.33;6.32;;;;;;;;;;5096475;28;20040;-75
2023/10/31 13:18:15;;;;;;;12.52;4.45;;;;;;;;;;5112599;28;20385;-75
2023/10/31 13:20:44;;;;;;;10.85;5.03;;;;;;;;;;5096950;28;20040;-75
2023/10/31 13:23:10;;;;;;;12.40;4.35;;;;;;;;;;5114845;28;20047;-76
2023/10/31 14:00:28;;;;;;;;;;;;;;;;;;;;;
2023/10/31 14:04:46;;;;;;;;;;;;;;;;;;;;;
2023/10/31 14:11:38;;;;;;;18.55;5.85;;;;;;;;;;4993860;28;20191;-74
2023/10/31 14:14:14;;;;;;;12.02;4.75;;;;;;;;;;5092653;28;20040;-74
2023/10/31 14:17:36;;;;;;;;;;;;;;;;;;;;;
2023/10/31 14:20:31;;;;;;;20.73;6.40;;;;;;;;;;5079445;28;20047;-75
2023/10/31 14:27:46;;;;;;;16.25;5.65;;;;;;;;;;5004013;28;20540;-75
2023/10/31 14:34:42;;;;;;;10.35;4.35;;;;;;;;;;4991542;28;20132;-74
2023/10/31 14:37:29;;;;;;;10.18;4.35;;;;;;;;;;5014024;28;20147;-74
2023/10/31 14:40:03;;;;;;;15.38;4.63;;;;;;;;;;5091955;28;20374;-76
2023/10/31 14:43:07;;;;;;;15.50;4.75;;;;;;;;;;5074067;28;20078;-75
2023/10/31 14:45:55;;;;;;;18.77;7.05;;;;;;;;;;5092378;28;20126;-76
2023/10/31 14:48:45;;;;;;;27.27;5.72;;;;;;;;;;5090852;28;20032;-76
2023/10/31 14:51:32;;;;;;;14.05;4.63;;;;;;;;;;5091284;28;20036;-70
2023/10/31 14:53:58;;;;;;;15.38;4.78;;;;;;;;;;5091579;28;20434;-70
2023/10/31 14:56:24;;;;;;;12.90;4.53;;;;;;;;;;5091153;28;20035;-70
2023/10/31 14:58:50;;;;;;;16.60;5.35;;;;;;;;;;5091227;28;20577;-68
2023/10/31 15:01:16;;;;;;;17.92;5.45;;;;;;;;;;5091090;28;20185;-71
2023/10/31 15:03:42;;;;;;;18.13;6.10;;;;;;;;;;5090077;28;20038;-69
2023/10/31 15:06:08;;;;;;;15.27;4.63;;;;;;;;;;5091931;28;20095;-70
2023/10/31 15:08:33;;;;;;;15.90;5.10;;;;;;;;;;5091022;28;20028;-70
2023/10/31 15:11:02;;;;;;;15.52;5.10;;;;;;;;;;5091879;28;20085;-71
2023/10/31 15:13:28;;;;;;;10.00;4.15;;;;;;;;;;5091653;28;20028;-69
2023/10/31 15:15:54;;;;;;;15.70;4.50;;;;;;;;;;5091543;28;20020;-71
2023/10/31 15:18:19;;;;;;;14.50;5.45;;;;;;;;;;5091944;28;20559;-72
2023/10/31 15:20:46;;;;;;;16.02;5.30;;;;;;;;;;5073744;28;20433;-71
2023/10/31 15:23:14;;;;;;;22.83;6.53;;;;;;;;;;5073644;28;20044;-70
2023/10/31 15:25:40;;;;;;;17.00;5.38;;;;;;;;;;5091571;28;20042;-71
2023/10/31 15:28:07;;;;;;;11.80;4.97;;;;;;;;;;5092428;28;20036;-69
2023/10/31 15:30:32;;;;;;;11.07;4.70;;;;;;;;;;5089563;28;20172;-69
2023/10/31 15:32:59;;;;;;;18.85;4.72;;;;;;;;;;5091267;28;20115;-69
2023/10/31 15:35:24;;;;;;;17.10;4.93;;;;;;;;;;5090503;28;20024;-70
2023/10/31 15:37:50;;;;;;;13.63;4.80;;;;;;;;;;5096028;28;20136;-70
2023/10/31 15:40:16;;;;;;;19.58;5.55;;;;;;;;;;5090470;28;20023;-69
2023/10/31 15:42:42;;;;;;;15.75;5.40;;;;;;;;;;5089849;28;20044;-68
2023/10/31 15:45:08;;;;;;;16.45;6.65;;;;;;;;;;5089370;28;20051;-70
2023/10/31 15:47:34;;;;;;;21.70;7.65;;;;;;;;;;5087202;28;20032;-71
2023/10/31 15:49:59;;;;;;;15.95;6.72;;;;;;;;;;5089413;28;20481;-68
2023/10/31 16:18:54;;;;;;;16.92;6.93;;;;;;;;;;5089953;28;20086;-69
2023/10/31 16:21:21;;;;;;;15.40;6.78;;;;;;;;;;5094150;28;20032;-70
2023/10/31 16:23:50;;;;;;;14.55;6.22;;;;;;;;;;5094733;28;20350;-70
2023/10/31 16:26:17;;;;;;;18.83;7.30;;;;;;;;;;5094842;28;20030;-68
2023/10/31 16:28:46;;;;;;;26.38;8.15;;;;;;;;;;5084483;28;20036;-69
2023/10/31 16:31:16;;;;;;;30.85;7.93;;;;;;;;;;5094158;28;20032;-69
2023/10/31 16:33:42;;;;;;;28.40;8.82;;;;;;;;;;5094003;28;20494;-70
2023/10/31 16:36:08;;;;;;;30.15;8.73;;;;;;;;;;5094326;28;20051;-70
2023/10/31 16:38:34;;;;;;;22.48;7.97;;;;;;;;;;5093339;28;20024;-69
2023/10/31 16:41:04;;;;;;;19.13;6.88;;;;;;;;;;5071063;28;20031;-69
2023/10/31 16:43:30;;;;;;;18.60;7.90;;;;;;;;;;5076788;28;20470;-69
2023/10/31 16:45:58;;;;;;;25.30;9.05;;;;;;;;;;5098831;28;20028;-70
2023/10/31 16:48:24;;;;;;;17.15;7.50;;;;;;;;;;5099717;28;20058;-70
2023/10/31 16:50:50;;;;;;;16.98;7.75;;;;;;;;;;5094224;28;20031;-70
2023/10/31 16:53:16;;;;;;;26.92;8.93;;;;;;;;;;5090483;28;20268;-70
2023/10/31 16:55:41;;;;;;;21.30;8.85;;;;;;;;;;5098765;28;20035;-71
2023/10/31 16:58:10;;;;;;;20.15;7.93;;;;;;;;;;5089195;28;20028;-69
2023/10/31 17:00:36;;;;;;;19.95;8.10;;;;;;;;;;5074059;28;20275;-68
2023/10/31 17:03:02;;;;;;;19.00;8.55;;;;;;;;;;5101200;28;20040;-69
2023/10/31 17:05:34;;;;;;;22.65;9.02;;;;;;;;;;5089308;28;20024;-70
2023/10/31 17:07:59;;;;;;;17.83;7.80;;;;;;;;;;5075040;28;20085;-68
2023/10/31 17:10:25;;;;;;;16.83;7.20;;;;;;;;;;5074689;28;20298;-67
2023/10/31 17:12:51;;;;;;;16.58;7.35;;;;;;;;;;5092724;28;20149;-67
2023/10/31 17:15:16;;;;;;;18.08;7.22;;;;;;;;;;5073942;28;20035;-67
2023/10/31 17:17:42;;;;;;;18.95;8.27;;;;;;;;;;5092402;28;20131;-67
2023/10/31 17:20:09;;;;;;;17.88;7.80;;;;;;;;;;5068247;28;20016;-67
2023/10/31 17:22:38;;;;;;;17.95;7.57;;;;;;;;;;5086639;28;20055;-68
2023/10/31 17:25:06;;;;;;;27.13;9.30;;;;;;;;;;5097282;28;20106;-67
2023/10/31 17:27:35;;;;;;;21.35;8.75;;;;;;;;;;5090514;28;20027;-71
2023/10/31 17:30:01;;;;;;;20.20;7.13;;;;;;;;;;5093970;28;20024;-68
2023/10/31 17:32:26;;;;;;;16.27;7.70;;;;;;;;;;5093014;28;20032;-70
2023/10/31 17:34:52;;;;;;;18.63;8.05;;;;;;;;;;5091853;28;20465;-70
2023/10/31 17:37:18;;;;;;;18.00;7.88;;;;;;;;;;5109414;28;20038;-70
2023/10/31 17:39:43;;;;;;;23.77;8.15;;;;;;;;;;5099242;28;20028;-70
2023/10/31 17:42:09;;;;;;;25.70;8.63;;;;;;;;;;5107150;28;20083;-70
2023/10/31 17:44:35;;;;;;;27.98;10.07;;;;;;;;;;5100894;28;20032;-70
2023/10/31 17:47:02;;;;;;;19.50;10.70;;;;;;;;;;5092861;28;20028;-70
2023/10/31 17:49:28;;;;;;;26.15;9.75;;;;;;;;;;5088273;28;20048;-71
2023/10/31 17:52:01;;;;;;;20.27;9.57;;;;;;;;;;5091643;28;20060;-70
2023/10/31 17:54:28;;;;;;;;;;;;;;;;;;5091701;28;20432;-70
2023/10/31 17:56:53;;;;;;;19.88;9.77;;;;;;;;;;5090981;28;20060;-71
2023/10/31 17:59:19;;;;;;;27.10;10.13;;;;;;;;;;5092587;28;20040;-70
2023/10/31 18:01:47;;;;;;;33.63;9.68;;;;;;;;;;5092413;28;20103;-69
2023/10/31 18:04:13;;;;;;;18.02;9.75;;;;;;;;;;5092676;28;20405;-68
2023/10/31 18:06:39;;;;;;;22.27;9.80;;;;;;;;;;5093140;28;20020;-69
2023/10/31 18:09:06;;;;;;;23.50;9.63;;;;;;;;;;5094056;28;20043;-69
2023/10/31 18:11:31;;;;;;;23.02;11.20;;;;;;;;;;5092117;28;20028;-69
2023/10/31 18:13:57;;;;;;;49.00;24.55;;;;;;;;;;5091249;28;20042;-70
2023/10/31 18:16:23;;;;;;;39.10;18.13;;;;;;;;;;5092136;28;20031;-71
2023/10/31 18:18:49;;;;;;;29.13;13.35;;;;;;;;;;5090642;28;20081;-71
2023/10/31 18:21:15;;;;;;;24.08;11.90;;;;;;;;;;5091654;28;20382;-69
2023/10/31 18:23:40;;;;;;;20.63;10.57;;;;;;;;;;5092786;28;20115;-70
2023/10/31 18:26:06;;;;;;;26.38;9.43;;;;;;;;;;5082325;28;20025;-69
2023/10/31 18:28:33;;;;;;;25.30;10.18;;;;;;;;;;5075567;28;20036;-69
2023/10/31 18:31:00;;;;;;;21.70;9.30;;;;;;;;;;5093488;28;20023;-70
2023/10/31 18:33:26;;;;;;;24.48;9.68;;;;;;;;;;5095075;28;20081;-71
2023/10/31 18:35:52;;;;;;;23.55;10.85;;;;;;;;;;5101318;28;20020;-70
2023/10/31 18:38:17;;;;;;;26.67;10.48;;;;;;;;;;5110947;28;20366;-70
2023/10/31 18:40:43;;;;;;;30.20;12.10;;;;;;;;;;5069541;28;20252;-70
2023/10/31 18:43:09;;;;;;;36.65;14.15;;;;;;;;;;5077659;28;20624;-70
2023/10/31 18:45:35;;;;;;;34.20;14.25;;;;;;;;;;5091792;28;20110;-69
2023/10/31 18:48:00;;;;;;;36.22;14.85;;;;;;;;;;5073739;28;20059;-69
2023/10/31 18:50:26;;;;;;;24.77;12.65;;;;;;;;;;5091478;28;20030;-70
2023/10/31 18:52:52;;;;;;;30.50;12.73;;;;;;;;;;5099511;28;20027;-70
2023/10/31 18:55:18;;;;;;;30.40;12.82;;;;;;;;;;5076627;28;20031;-69
2023/10/31 18:57:44;;;;;;;24.77;11.50;;;;;;;;;;5088896;28;20489;-71
2023/10/31 19:00:10;;;;;;;25.42;11.45;;;;;;;;;;5072431;28;20036;-70
2023/10/31 19:02:36;;;;;;;35.55;13.68;;;;;;;;;;5092359;28;20040;-70
2023/10/31 19:05:04;;;;;;;41.17;13.73;;;;;;;;;;5092316;28;20020;-70
2023/10/31 19:07:30;;;;;;;46.13;15.73;;;;;;;;;;5098716;28;20039;-71
2023/10/31 19:09:55;;;;;;;36.15;13.57;;;;;;;;;;5073312;28;20032;-71
2023/10/31 19:12:21;;;;;;;36.00;12.15;;;;;;;;;;5091162;28;20075;-70
2023/10/31 19:14:47;;;;;;;28.65;13.15;;;;;;;;;;5091083;28;20384;-71
2023/10/31 19:17:13;;;;;;;32.35;12.13;;;;;;;;;;5091814;28;20036;-70
2023/10/31 19:19:38;;;;;;;43.75;14.15;;;;;;;;;;5073592;28;20024;-68
2023/10/31 19:22:04;;;;;;;36.85;14.35;;;;;;;;;;5090956;28;20032;-70
2023/10/31 19:24:30;;;;;;;50.72;14.95;;;;;;;;;;5092177;28;20554;-69
2023/10/31 19:26:59;;;;;;;41.22;13.23;;;;;;;;;;5072653;28;20095;-69
2023/10/31 19:29:25;;;;;;;35.00;12.63;;;;;;;;;;5091546;28;20052;-71
2023/10/31 19:31:50;;;;;;;28.85;11.55;;;;;;;;;;5091308;28;20035;-70
2023/10/31 19:34:16;;;;;;;31.88;12.23;;;;;;;;;;5092466;28;20023;-69
2023/10/31 19:36:42;;;;;;;31.02;11.75;;;;;;;;;;5091915;28;20076;-71
2023/10/31 19:39:08;;;;;;;41.95;14.80;;;;;;;;;;5091437;28;20158;-71
2023/10/31 19:41:34;;;;;;;30.23;11.50;;;;;;;;;;5098993;28;20485;-70
2023/10/31 19:44:03;;;;;;;27.33;12.15;;;;;;;;;;5095810;28;20020;-70
2023/10/31 19:46:29;;;;;;;35.90;12.80;;;;;;;;;;5095366;28;20039;-72
2023/10/31 19:48:55;;;;;;;29.60;13.02;;;;;;;;;;5095841;28;20110;-70
2023/10/31 19:51:21;;;;;;;40.22;14.18;;;;;;;;;;5094888;28;20486;-70
2023/10/31 19:53:47;;;;;;;25.17;10.63;;;;;;;;;;5102383;28;20162;-71
2023/10/31 19:56:17;;;;;;;24.48;10.68;;;;;;;;;;5112560;28;20119;-69
2023/10/31 19:58:43;;;;;;;24.17;10.63;;;;;;;;;;5095975;28;20111;-69
2023/10/31 20:01:09;;;;;;;22.30;9.90;;;;;;;;;;5094428;28;20038;-69
2023/10/31 20:03:36;;;;;;;26.52;11.18;;;;;;;;;;5095930;28;20366;-70
2023/10/31 20:06:03;;;;;;;32.15;12.00;;;;;;;;;;5095287;28;20047;-71
2023/10/31 20:08:29;;;;;;;37.17;12.75;;;;;;;;;;5080634;28;20077;-70
2023/10/31 20:10:55;;;;;;;28.65;13.38;;;;;;;;;;5094485;28;20052;-69
2023/10/31 20:13:22;;;;;;;35.60;13.35;;;;;;;;;;5077329;28;20036;-70
2023/10/31 20:15:50;;;;;;;25.90;11.10;;;;;;;;;;5095367;28;20036;-70
2023/10/31 20:18:16;;;;;;;35.33;12.70;;;;;;;;;;5093619;28;20047;-71
2023/10/31 20:20:42;;;;;;;29.15;12.55;;;;;;;;;;5094689;28;20081;-71
2023/10/31 20:23:08;;;;;;;28.25;12.23;;;;;;;;;;5094313;28;20043;-70
2023/10/31 20:25:33;;;;;;;23.88;11.25;;;;;;;;;;5096088;28;20024;-71
2023/10/31 20:28:00;;;;;;;20.38;10.95;;;;;;;;;;5095934;28;20024;-71
2023/10/31 20:30:28;;;;;;;34.50;13.18;;;;;;;;;;5094777;28;20035;-69
2023/10/31 20:32:55;;;;;;;21.92;10.73;;;;;;;;;;5098768;28;20032;-70
2023/10/31 20:35:21;;;;;;;27.05;11.50;;;;;;;;;;5104054;28;20035;-71
2023/10/31 20:37:46;;;;;;;29.73;12.43;;;;;;;;;;5095555;28;20028;-70
2023/10/31 20:40:15;;;;;;;28.48;11.27;;;;;;;;;;5095805;28;20024;-70
2023/10/31 20:42:42;;;;;;;29.65;11.68;;;;;;;;;;5078237;28;20064;-71
2023/10/31 20:45:09;;;;;;;38.05;17.50;;;;;;;;;;5087836;28;20047;-71
2023/10/31 20:47:36;;;;;;;42.65;17.38;;;;;;;;;;5095417;28;20485;-73
2023/10/31 20:50:05;;;;;;;45.90;18.30;;;;;;;;;;5095390;28;20024;-71
2023/10/31 20:52:34;;;;;;;47.47;19.65;;;;;;;;;;5077083;28;20036;-72
2023/10/31 20:55:00;;;;;;;44.28;17.35;;;;;;;;;;5095414;28;20449;-72
2023/10/31 20:57:26;;;;;;;55.15;16.67;;;;;;;;;;5095540;28;20028;-71
2023/10/31 20:59:52;;;;;;;28.85;14.77;;;;;;;;;;5094887;28;20439;-72
2023/10/31 21:02:19;;;;;;;31.65;14.88;;;;;;;;;;5099625;28;20031;-72
2023/10/31 21:04:45;;;;;;;29.02;13.40;;;;;;;;;;5116608;28;20028;-72
2023/10/31 21:07:10;;;;;;;32.38;15.55;;;;;;;;;;5102196;28;20035;-71
2023/10/31 21:09:36;;;;;;;28.95;13.57;;;;;;;;;;5100985;28;20028;-71
2023/10/31 21:12:03;;;;;;;35.63;16.10;;;;;;;;;;5096384;28;20201;-72
2023/10/31 21:14:28;;;;;;;31.90;15.25;;;;;;;;;;5095344;28;20024;-73
2023/10/31 21:16:54;;;;;;;31.83;15.77;;;;;;;;;;5077475;28;20051;-72
2023/10/31 21:19:20;;;;;;;31.50;14.50;;;;;;;;;;5077838;28;20034;-71
2023/10/31 21:21:46;;;;;;;27.58;13.52;;;;;;;;;;5103691;28;20035;-72
2023/10/31 21:24:12;;;;;;;35.05;13.95;;;;;;;;;;5097118;28;20051;-72
2023/10/31 21:26:38;;;;;;;29.42;12.77;;;;;;;;;;5097527;28;20032;-71